Withee, WI (54498)

11:17 AM CST on February 11, 2016 (GMT -0600)
Backyard, N. Andrews Ave | | Change Station
CLOSE
Current Station
Personal Weather Station
Location: Greenwood, WI
Elevation: 1161 ft
Nearby Weather Stations

Elev 1161 ft 44.77 °N, 90.60 °W | Updated 8 seconds ago

Clear
Clear
7.5 °F
Feels Like -1 °F
N
4.5
Wind Variable Wind from West
Gusts 8.5 mph

Today
High -- | Low -- °F
--% Chance of Precip.
Yesterday
High -- | Low -- °F
Precip. -- in
Pressure 30.22 in
Visibility 10.0 miles
Clouds Clear
Windchill -1 °F
Dew Point -10 °F
Humidity 43%
Rainfall 0.00 in
Snow Depth Not available.
7:09 AM 5:24 PM
Waxing Crescent, 13% visible
METAR KMDZ 111655Z AUTO 30004KT 10SM CLR M15/M18 A3022 RMK AO2 T11511182
Pressure 30.22 in
Visibility 10.0 miles
Clouds Clear
Windchill -1 °F
Dew Point -10 °F
Humidity 43%
Rainfall 0.00 in
Snow Depth Not available.
7:09 AM 5:24 PM
Waxing Crescent, 13% visible
METAR KMDZ 111655Z AUTO 30004KT 10SM CLR M15/M18 A3022 RMK AO2 T11511182

10-Day Weather Forecast

Almanac

Astronomy

Feb. 11, 2016 Rise Set
Actual Time
Civil Twilight
Nautical Twilight
Astronomical Twilight
Moon
Length of Visible Light
Length of Day
Tomorrow will be .
, % of the Moon is Illuminated

Today's Extremes

State Highs State Lows

Community

WunderPhotos

Upload Photos

1,892,104 photos uploaded!

WunderBlog® & News

Nearby

Air Quality

  Air Quality AQ Index Pollutant
Not available.

Snow Depth

Station Depth Elevation

Earthquake Activity

City Distance Mag. Time & Date
Minimum magnitude displayed is 2.5.

Coastal Water Temperatures

Place Temperature

Stations

Nearby Weather Stations

Station Location Temp. Windchill Dew Point Humidity Wind Precip. Elev Updated Type
                   

Watches & Warnings

There are currently no watches in effect.